createdAt,value
2023-01-21T00:00:58.871Z,99766.47
2023-01-21T00:04:00.508Z,99760.81
2023-01-21T00:07:02.312Z,99753.97
2023-01-21T00:10:04.375Z,99754.63
2023-01-21T00:13:05.994Z,99761.62
2023-01-21T00:16:08.301Z,99761.88
2023-01-21T00:19:09.965Z,99762.53
2023-01-21T00:22:11.757Z,99772.59
2023-01-21T00:25:13.486Z,99759.06
2023-01-21T00:28:15.111Z,99770.69
2023-01-21T00:31:17.094Z,99778.13
2023-01-21T00:34:18.833Z,99777.56
2023-01-21T00:37:20.508Z,99772.31
2023-01-21T00:40:22.357Z,99772.56
2023-01-21T00:43:23.964Z,99780.81
2023-01-21T00:46:25.990Z,99778.66
2023-01-21T00:49:28.979Z,99784.44
2023-01-21T00:52:31.008Z,99785.97
2023-01-21T00:55:32.648Z,99784.97
2023-01-21T00:58:35.192Z,99779.66
2023-01-21T01:01:38.610Z,99779.06
2023-01-21T01:04:40.405Z,99785.88
2023-01-21T01:07:46.234Z,99777.81
2023-01-21T01:10:48.366Z,99778.19
2023-01-21T01:13:50.099Z,99780.06
2023-01-21T01:16:51.706Z,99783.09
2023-01-21T01:19:53.479Z,99791.56
2023-01-21T01:22:55.098Z,99793.53
2023-01-21T01:26:02.362Z,99792.34
2023-01-21T01:29:05.289Z,99796.75
2023-01-21T01:32:06.955Z,99798.44
2023-01-21T01:35:09.072Z,99787.72
2023-01-21T01:38:10.696Z,99789.94
2023-01-21T01:41:19.362Z,99781.22
2023-01-21T01:44:48.930Z,99783.72
2023-01-21T01:48:00.004Z,99779.06
2023-01-21T01:51:04.541Z,99781.59
2023-01-21T01:54:07.934Z,99787.91
2023-01-21T01:57:13.216Z,99781.75
2023-01-21T02:00:16.009Z,99780.50
2023-01-21T02:03:37.225Z,99786.81
2023-01-21T02:06:40.906Z,99773.44
2023-01-21T02:09:42.691Z,99767.16
2023-01-21T02:12:44.689Z,99775.72
2023-01-21T02:16:14.452Z,99773.97
2023-01-21T02:19:25.195Z,99777.97
2023-01-21T02:22:51.838Z,99778.44
2023-01-21T02:26:35.532Z,99771.69
2023-01-21T02:30:07.133Z,99774.75
2023-01-21T02:33:18.026Z,99779.47
2023-01-21T02:36:31.482Z,99788.37
2023-01-21T02:39:45.376Z,99792.06
2023-01-21T02:42:51.081Z,99791.38
2023-01-21T02:46:21.287Z,99790.41
2023-01-21T02:49:31.366Z,99784.28
2023-01-21T02:52:33.135Z,99792.03
2023-01-21T02:55:38.873Z,99788.37
2023-01-21T02:58:47.575Z,99798.78
2023-01-21T03:02:04.324Z,99799.00
2023-01-21T03:05:11.983Z,99794.91
2023-01-21T03:08:28.088Z,99801.97
2023-01-21T03:11:29.909Z,99800.94
2023-01-21T03:15:02.146Z,99802.78
2023-01-21T03:18:34.330Z,99810.72
2023-01-21T03:21:36.716Z,99807.59
2023-01-21T03:24:42.425Z,99807.31
2023-01-21T03:27:47.670Z,99816.34
2023-01-21T03:31:24.233Z,99824.50
2023-01-21T03:34:29.549Z,99824.31
2023-01-21T03:37:38.158Z,99832.53
2023-01-21T03:40:46.497Z,99842.41
2023-01-21T03:43:48.743Z,99846.13
2023-01-21T03:47:09.179Z,99834.94
2023-01-21T03:50:20.299Z,99837.62
2023-01-21T03:53:22.331Z,99843.00
2023-01-21T03:56:26.483Z,99833.28
2023-01-21T03:59:28.121Z,99838.00
2023-01-21T04:02:29.930Z,99836.31
2023-01-21T04:05:31.588Z,99837.62
2023-01-21T04:08:33.255Z,99824.69
2023-01-21T04:11:34.899Z,99822.09
2023-01-21T04:14:37.016Z,99825.09
2023-01-21T04:17:38.888Z,99833.28
2023-01-21T04:20:40.585Z,99835.22
2023-01-21T04:23:42.253Z,99843.66
2023-01-21T04:26:43.943Z,99860.12
2023-01-21T04:29:45.580Z,99854.53
2023-01-21T04:32:47.249Z,99857.34
2023-01-21T04:35:48.904Z,99854.81
2023-01-21T04:38:52.214Z,99862.38
2023-01-21T04:41:53.912Z,99876.47
2023-01-21T04:44:55.522Z,99879.94
2023-01-21T04:47:57.269Z,99880.53
2023-01-21T04:50:59.151Z,99888.53
2023-01-21T04:54:00.855Z,99898.03
2023-01-21T04:57:02.609Z,99894.41
2023-01-21T05:00:07.026Z,99905.88
2023-01-21T05:03:08.707Z,99902.78
2023-01-21T05:06:10.665Z,99914.12
2023-01-21T05:09:12.425Z,99914.12
2023-01-21T05:12:14.112Z,99924.06
2023-01-21T05:15:16.010Z,99923.50
2023-01-21T05:18:17.676Z,99925.72
2023-01-21T05:21:19.364Z,99934.19
2023-01-21T05:24:21.133Z,99944.41
2023-01-21T05:27:22.943Z,99953.13
2023-01-21T05:30:24.858Z,99955.66
2023-01-21T05:33:33.392Z,99951.06
2023-01-21T05:36:37.894Z,99951.03
2023-01-21T05:39:39.637Z,99955.44
2023-01-21T05:42:41.360Z,99963.72
2023-01-21T05:45:43.000Z,99962.09
2023-01-21T05:48:45.059Z,99964.16
2023-01-21T05:51:46.735Z,99966.09
2023-01-21T05:55:01.054Z,99977.81
2023-01-21T05:58:04.368Z,99974.53
2023-01-21T06:01:06.051Z,99976.34
2023-01-21T06:04:07.828Z,99990.22
2023-01-21T06:07:09.499Z,99992.25
2023-01-21T06:10:11.523Z,99982.81
2023-01-21T06:13:14.968Z,99978.41
2023-01-21T06:16:16.780Z,99965.13
2023-01-21T06:19:18.484Z,99963.91
2023-01-21T06:22:20.493Z,99960.78
2023-01-21T06:25:22.295Z,99965.84
2023-01-21T06:28:24.043Z,99961.97
2023-01-21T06:31:26.265Z,99962.94
2023-01-21T06:34:28.030Z,99969.13
2023-01-21T06:37:30.341Z,99969.84
2023-01-21T06:40:32.060Z,99969.47
2023-01-21T06:43:33.769Z,99978.78
2023-01-21T06:46:35.590Z,99985.06
2023-01-21T06:49:37.295Z,99997.56
2023-01-21T06:52:42.542Z,100004.41
2023-01-21T06:55:44.278Z,100021.62
2023-01-21T06:58:45.995Z,100025.84
2023-01-21T07:01:47.693Z,100031.16
2023-01-21T07:04:51.405Z,100031.16
2023-01-21T07:07:57.834Z,100040.53
2023-01-21T07:10:59.623Z,100046.63
2023-01-21T07:14:01.330Z,100065.19
2023-01-21T07:17:02.992Z,100055.03
2023-01-21T07:20:05.613Z,100061.41
2023-01-21T07:23:07.269Z,100059.81
2023-01-21T07:26:09.301Z,100071.56
2023-01-21T07:29:11.011Z,100067.66
2023-01-21T07:32:12.685Z,100063.75
2023-01-21T07:35:14.759Z,100075.00
2023-01-21T07:38:16.891Z,100070.56
2023-01-21T07:41:18.530Z,100071.28
2023-01-21T07:44:20.159Z,100081.06
2023-01-21T07:47:21.783Z,100081.94
2023-01-21T07:50:23.428Z,100081.41
2023-01-21T07:53:25.101Z,100093.47
2023-01-21T07:56:27.254Z,100102.97
2023-01-21T07:59:28.867Z,100104.75
2023-01-21T08:02:30.626Z,100096.59
2023-01-21T08:05:32.959Z,100097.56
2023-01-21T08:08:34.688Z,100099.00
2023-01-21T08:11:36.603Z,100083.34
2023-01-21T08:14:39.093Z,100077.84
2023-01-21T08:17:43.089Z,100079.25
2023-01-21T08:20:44.910Z,100088.50
2023-01-21T08:23:46.971Z,100088.88
2023-01-21T08:26:49.178Z,100100.06
2023-01-21T08:29:50.824Z,100106.00
2023-01-21T08:32:52.508Z,100120.47
2023-01-21T08:35:59.893Z,100132.28
2023-01-21T08:39:02.093Z,100130.88
2023-01-21T08:42:03.990Z,100131.84
2023-01-21T08:45:06.468Z,100130.69
2023-01-21T08:48:08.126Z,100133.41
2023-01-21T08:51:09.868Z,100138.94
2023-01-21T08:54:11.506Z,100132.56
2023-01-21T08:57:13.217Z,100131.25
2023-01-21T09:00:15.401Z,100134.31
2023-01-21T09:03:17.860Z,100130.41
2023-01-21T09:06:19.478Z,100130.69
2023-01-21T09:09:21.113Z,100137.44
2023-01-21T09:12:22.770Z,100137.69
2023-01-21T09:15:24.397Z,100140.66
2023-01-21T09:18:26.191Z,100138.78
2023-01-21T09:21:29.482Z,100141.47
2023-01-21T09:24:31.915Z,100138.63
2023-01-21T09:27:33.529Z,100142.84
2023-01-21T09:30:35.159Z,100139.31
2023-01-21T09:33:38.700Z,100136.69
2023-01-21T09:36:40.432Z,100134.47
2023-01-21T09:39:42.141Z,100137.25
2023-01-21T09:42:44.046Z,100133.16
2023-01-21T09:45:47.969Z,100139.13
2023-01-21T09:48:50.721Z,100134.34
2023-01-21T09:52:27.622Z,100128.41
2023-01-21T09:55:46.856Z,100138.47
2023-01-21T09:58:57.519Z,100133.28
2023-01-21T10:02:01.667Z,100136.53
2023-01-21T10:05:21.478Z,100147.25
2023-01-21T10:08:41.823Z,100150.00
2023-01-21T10:12:01.795Z,100147.59
2023-01-21T10:15:06.951Z,100153.44
2023-01-21T10:18:15.307Z,100155.84
2023-01-21T10:21:44.235Z,100159.72
2023-01-21T10:24:53.763Z,100163.19
2023-01-21T10:27:59.757Z,100163.47
2023-01-21T10:31:49.442Z,100159.28
2023-01-21T10:34:53.301Z,100166.94
2023-01-21T10:38:07.105Z,100169.66
2023-01-21T10:41:30.157Z,100167.34
2023-01-21T10:44:52.571Z,100168.50
2023-01-21T10:48:25.541Z,100166.09
2023-01-21T10:51:48.544Z,100163.78
2023-01-21T10:55:15.580Z,100155.53
2023-01-21T10:58:37.157Z,100151.53
2023-01-21T11:01:42.199Z,100151.22
2023-01-21T11:04:44.586Z,100136.19
2023-01-21T11:07:48.240Z,100132.75
2023-01-21T11:10:55.287Z,100121.38
2023-01-21T11:13:57.055Z,100127.75
2023-01-21T11:16:58.741Z,100138.75
2023-01-21T11:20:02.956Z,100132.69
2023-01-21T11:23:06.161Z,100125.53
2023-01-21T11:26:35.701Z,100122.06
2023-01-21T11:29:41.368Z,100128.03
2023-01-21T11:32:43.087Z,100135.22
2023-01-21T11:35:45.193Z,100129.75
2023-01-21T11:38:59.849Z,100129.69
2023-01-21T11:42:08.187Z,100142.84
2023-01-21T11:45:28.638Z,100135.59
2023-01-21T11:48:30.355Z,100141.41
2023-01-21T11:51:32.761Z,100143.25
2023-01-21T11:54:40.196Z,100154.44
2023-01-21T11:57:42.157Z,100147.50
2023-01-21T12:00:47.024Z,100150.16
2023-01-21T12:03:53.355Z,100148.06
2023-01-21T12:06:58.704Z,100151.03
2023-01-21T12:10:19.879Z,100165.87
2023-01-21T12:13:43.026Z,100161.12
2023-01-21T12:16:50.640Z,100159.53
2023-01-21T12:20:03.127Z,100159.06
2023-01-21T12:23:25.762Z,100171.41
2023-01-21T12:26:47.774Z,100173.28
2023-01-21T12:30:16.934Z,100172.59
2023-01-21T12:33:21.467Z,100173.47
2023-01-21T12:36:27.956Z,100182.06
2023-01-21T12:39:34.284Z,100168.91
2023-01-21T12:42:41.148Z,100172.50
2023-01-21T12:45:55.385Z,100168.66
2023-01-21T12:49:06.501Z,100172.34
2023-01-21T12:52:34.839Z,100174.47
2023-01-21T12:55:58.263Z,100173.00
2023-01-21T12:59:08.933Z,100175.56
2023-01-21T13:02:32.266Z,100173.44
2023-01-21T13:05:43.245Z,100167.81
2023-01-21T13:09:07.883Z,100170.56
2023-01-21T13:12:18.792Z,100177.66
2023-01-21T13:15:24.024Z,100179.72
2023-01-21T13:18:51.504Z,100180.47
2023-01-21T13:22:34.548Z,100181.38
2023-01-21T13:25:59.700Z,100182.97
2023-01-21T13:29:39.547Z,100181.75
2023-01-21T13:32:59.717Z,100188.59
2023-01-21T13:36:35.080Z,100188.38
2023-01-21T13:39:44.211Z,100192.69
2023-01-21T13:43:25.241Z,100197.88
2023-01-21T13:46:33.242Z,100192.44
2023-01-21T13:49:47.001Z,100202.03
2023-01-21T13:53:00.501Z,100207.66
2023-01-21T13:56:26.757Z,100216.66
2023-01-21T13:59:38.891Z,100224.34
2023-01-21T14:03:22.253Z,100237.19
2023-01-21T14:06:27.143Z,100224.84
2023-01-21T14:10:21.016Z,100233.34
2023-01-21T14:13:22.648Z,100233.72
2023-01-21T14:16:26.840Z,100237.13
2023-01-21T14:19:31.163Z,100238.97
2023-01-21T14:22:35.691Z,100241.19
2023-01-21T14:25:55.343Z,100249.50
2023-01-21T14:29:09.706Z,100248.97
2023-01-21T14:32:21.541Z,100246.44
2023-01-21T14:35:32.872Z,100255.81
2023-01-21T14:39:17.341Z,100271.03
2023-01-21T14:42:26.362Z,100260.81
2023-01-21T14:45:52.423Z,100268.84
2023-01-21T14:49:08.667Z,100271.88
2023-01-21T14:52:19.163Z,100268.47
2023-01-21T14:55:31.372Z,100271.06
2023-01-21T14:58:36.062Z,100273.53
2023-01-21T15:01:45.104Z,100274.41
2023-01-21T15:05:00.530Z,100277.69
2023-01-21T15:08:25.804Z,100275.69
2023-01-21T15:11:38.125Z,100277.31
2023-01-21T15:14:42.460Z,100283.34
2023-01-21T15:17:53.742Z,100284.44
2023-01-21T15:21:00.808Z,100283.34
2023-01-21T15:24:27.334Z,100283.72
2023-01-21T15:27:32.635Z,100281.06
2023-01-21T15:30:54.073Z,100284.22
2023-01-21T15:34:11.878Z,100283.72
2023-01-21T15:37:21.052Z,100288.16
2023-01-21T15:40:28.044Z,100302.63
2023-01-21T15:43:40.794Z,100306.16
2023-01-21T15:46:45.643Z,100312.13
2023-01-21T15:49:54.337Z,100312.31
2023-01-21T15:53:14.560Z,100318.63
2023-01-21T15:56:53.819Z,100315.09
2023-01-21T16:00:07.317Z,100318.06
2023-01-21T16:03:35.808Z,100321.78
2023-01-21T16:07:10.399Z,100327.63
2023-01-21T16:10:27.621Z,100322.69
2023-01-21T16:14:00.149Z,100315.88
2023-01-21T16:17:23.033Z,100315.28
2023-01-21T16:20:25.060Z,100319.03
2023-01-21T16:23:35.671Z,100317.94
2023-01-21T16:26:39.298Z,100327.56
2023-01-21T16:29:41.447Z,100318.63
2023-01-21T16:32:43.971Z,100314.38
2023-01-21T16:35:50.396Z,100310.84
2023-01-21T16:38:53.254Z,100318.75
2023-01-21T16:42:04.117Z,100314.31
2023-01-21T16:45:19.576Z,100307.69
2023-01-21T16:48:25.336Z,100307.06
2023-01-21T16:51:32.723Z,100313.88
2023-01-21T16:54:35.163Z,100318.84
2023-01-21T16:57:37.593Z,100318.06
2023-01-21T17:00:39.775Z,100327.63
2023-01-21T17:03:43.353Z,100324.34
2023-01-21T17:06:46.341Z,100330.31
2023-01-21T17:09:59.433Z,100330.78
2023-01-21T17:13:08.530Z,100329.91
2023-01-21T17:16:24.099Z,100339.19
2023-01-21T17:19:33.308Z,100343.94
2023-01-21T17:22:36.194Z,100345.03
2023-01-21T17:25:38.439Z,100340.69
2023-01-21T17:28:44.946Z,100352.06
2023-01-21T17:31:55.821Z,100356.69
2023-01-21T17:35:10.282Z,100355.66
2023-01-21T17:38:29.295Z,100366.94
2023-01-21T17:41:35.026Z,100373.28
2023-01-21T17:44:37.565Z,100372.41
2023-01-21T17:48:03.236Z,100370.56
2023-01-21T17:51:07.230Z,100373.56
2023-01-21T17:54:29.691Z,100372.22
2023-01-21T17:57:36.476Z,100376.03
2023-01-21T18:00:45.415Z,100383.47
2023-01-21T18:03:48.175Z,100378.63
2023-01-21T18:06:52.252Z,100377.62
2023-01-21T18:09:55.848Z,100378.19
2023-01-21T18:12:59.312Z,100380.09
2023-01-21T18:16:01.429Z,100387.62
2023-01-21T18:19:03.610Z,100386.97
2023-01-21T18:22:07.119Z,100396.47
2023-01-21T18:25:11.257Z,100400.34
2023-01-21T18:28:19.420Z,100407.19
2023-01-21T18:31:23.064Z,100410.56
2023-01-21T18:34:25.748Z,100413.75
2023-01-21T18:37:27.762Z,100426.03
2023-01-21T18:40:30.056Z,100419.97
2023-01-21T18:43:32.791Z,100420.22
2023-01-21T18:46:43.013Z,100425.09
2023-01-21T18:49:48.629Z,100427.13
2023-01-21T18:52:51.205Z,100418.06
2023-01-21T18:55:54.932Z,100424.34
2023-01-21T18:58:57.716Z,100427.78
2023-01-21T19:02:00.246Z,100420.66
2023-01-21T19:05:04.176Z,100425.47
2023-01-21T19:08:16.943Z,100425.31
2023-01-21T19:11:19.536Z,100428.72
2023-01-21T19:14:21.943Z,100426.97
2023-01-21T19:17:30.347Z,100439.22
2023-01-21T19:20:32.581Z,100444.66
2023-01-21T19:23:38.272Z,100448.94
2023-01-21T19:26:40.600Z,100448.84
2023-01-21T19:29:42.759Z,100452.06
2023-01-21T19:32:44.831Z,100433.50
2023-01-21T19:36:12.468Z,100436.84
2023-01-21T19:39:19.902Z,100443.47
2023-01-21T19:42:22.437Z,100453.06
2023-01-21T19:45:28.689Z,100440.41
2023-01-21T19:48:30.946Z,100432.06
2023-01-21T19:51:33.295Z,100437.00
2023-01-21T19:54:35.255Z,100433.53
2023-01-21T19:57:38.574Z,100428.19
2023-01-21T20:00:41.403Z,100444.19
2023-01-21T20:03:58.755Z,100445.25
2023-01-21T20:07:02.650Z,100457.09
2023-01-21T20:10:15.438Z,100451.78
2023-01-21T20:13:17.843Z,100455.38
2023-01-21T20:16:23.957Z,100455.41
2023-01-21T20:19:26.747Z,100456.31
2023-01-21T20:22:29.126Z,100463.25
2023-01-21T20:25:39.386Z,100467.44
2023-01-21T20:28:47.220Z,100464.09
2023-01-21T20:31:52.199Z,100471.66
2023-01-21T20:34:54.901Z,100467.63
2023-01-21T20:38:00.218Z,100462.94
2023-01-21T20:41:04.239Z,100476.22
2023-01-21T20:44:06.355Z,100478.72
2023-01-21T20:47:11.266Z,100482.50
2023-01-21T20:50:22.044Z,100481.47
2023-01-21T20:53:24.711Z,100471.94
2023-01-21T20:56:31.992Z,100486.59
2023-01-21T20:59:35.060Z,100479.53
2023-01-21T21:02:37.560Z,100483.41
2023-01-21T21:05:40.702Z,100492.97
2023-01-21T21:08:45.087Z,100496.19
2023-01-21T21:11:47.271Z,100496.72
2023-01-21T21:14:49.546Z,100484.44
2023-01-21T21:17:51.463Z,100474.47
2023-01-21T21:20:53.331Z,100477.03
2023-01-21T21:23:55.458Z,100461.88
2023-01-21T21:26:57.628Z,100481.75
2023-01-21T21:29:59.791Z,100476.75
2023-01-21T21:33:03.412Z,100484.09
2023-01-21T21:36:05.597Z,100486.69
2023-01-21T21:39:08.006Z,100493.47
2023-01-21T21:42:31.141Z,100491.81
2023-01-21T21:45:33.442Z,100491.88
2023-01-21T21:48:38.317Z,100494.50
2023-01-21T21:51:40.871Z,100489.00
2023-01-21T21:54:43.082Z,100497.50
2023-01-21T21:57:45.306Z,100486.06
2023-01-21T22:00:47.270Z,100491.28
2023-01-21T22:03:49.600Z,100491.94
2023-01-21T22:06:51.630Z,100494.72
2023-01-21T22:09:53.522Z,100485.25
2023-01-21T22:12:55.287Z,100482.13
2023-01-21T22:15:59.185Z,100477.13
2023-01-21T22:19:01.864Z,100473.53
2023-01-21T22:22:03.731Z,100461.78
2023-01-21T22:25:06.940Z,100458.03
2023-01-21T22:28:08.587Z,100460.22
2023-01-21T22:31:17.075Z,100471.31
2023-01-21T22:34:18.773Z,100475.06
2023-01-21T22:37:20.431Z,100477.34
2023-01-21T22:40:22.118Z,100475.69
2023-01-21T22:43:23.829Z,100482.69
2023-01-21T22:46:29.438Z,100489.16
2023-01-21T22:49:31.178Z,100493.56
2023-01-21T22:52:32.835Z,100490.88
2023-01-21T22:55:36.439Z,100500.53
2023-01-21T22:58:38.129Z,100505.16
2023-01-21T23:01:40.140Z,100508.81
2023-01-21T23:04:41.977Z,100507.56
2023-01-21T23:07:43.604Z,100509.25
2023-01-21T23:10:46.818Z,100507.34
2023-01-21T23:13:53.436Z,100511.53
2023-01-21T23:16:55.212Z,100500.88
2023-01-21T23:19:56.902Z,100502.41
2023-01-21T23:22:58.860Z,100511.56
2023-01-21T23:26:02.086Z,100513.91
2023-01-21T23:29:04.045Z,100515.53
2023-01-21T23:32:05.937Z,100514.19
2023-01-21T23:35:08.883Z,100518.69
2023-01-21T23:38:10.532Z,100516.44
2023-01-21T23:41:16.896Z,100524.87
2023-01-21T23:44:18.692Z,100532.25
2023-01-21T23:47:20.405Z,100524.13
2023-01-21T23:50:22.222Z,100518.53
2023-01-21T23:53:23.865Z,100528.84
2023-01-21T23:56:26.221Z,100532.84
2023-01-21T23:59:27.895Z,100527.50
